• Join FlightAware (Why Join?)
  • Login
  • US Flag 
07:51AM EST


 

Airport Tracker/Info


-or-


 

Live Flight TrackerFlight Track Log ✈ USC105 ✈ 06-May-2013 ✈ KLCK - KBKL

Flight Track Log - Related Links

Times and Time Zones

All times are in EDT time to prevent confusion due to time zone crossing. See the USC105 flight status page for this flight to view local times or setup timezone preferences in your user account.

Time Position Orientation Groundspeed Altitude Reporting Facility
EDT Latitude Longitude Course Direction KTS MPH feet Rate Location/Type
09:55PM 39.8197 -82.9219 41° Northeast 115 132 1,000  Level Indianapolis Center
09:57PM 39.8694 -82.8653 41° Northeast 112 129 3,700 1,200 Climbing Indianapolis Center
09:59PM 39.8944 -82.8381 40° Northeast 123 142 4,800 600 Climbing Indianapolis Center
10:00PM 39.9317 -82.8125 28° Northeast 166 191 5,000 60 Climbing Indianapolis Center
10:01PM 39.9800 -82.7772 29° Northeast 171 197 5,000 360 Level Indianapolis Center
10:02PM 40.0194 -82.7514 27° Northeast 168 193 5,800 1,020 Climbing Indianapolis Center
10:03PM 40.0542 -82.7308 24° Northeast 131 151 7,000 360 Climbing Indianapolis Center
10:04PM 40.1356 -82.6719 29° Northeast 188 216 7,000  Level Indianapolis Center
10:05PM 40.1425 -82.6631 44° Northeast 179 206 7,100  Climbing Indianapolis Center
10:06PM 40.1906 -82.6314 27° Northeast 185 213 7,000  Descending Indianapolis Center
10:07PM 40.2347 -82.5983 30° Northeast 185 213 7,100  Climbing Indianapolis Center
10:08PM 40.2914 -82.5606 27° Northeast 185 213 7,000 -60 Descending Indianapolis Center
10:09PM 40.3264 -82.5344 30° Northeast 184 212 7,000  Level Indianapolis Center
10:10PM 40.3700 -82.5019 30° Northeast 182 209 7,100  Climbing Indianapolis Center
10:11PM 40.4153 -82.4708 28° Northeast 183 211 7,100  Level Indianapolis Center
10:12PM 40.4692 -82.4331 28° Northeast 184 212 7,100  Level Indianapolis Center
10:13PM 40.5147 -82.4003 29° Northeast 185 213 7,100  Level Indianapolis Center
10:14PM 40.5603 -82.3672 29° Northeast 185 213 7,100  Level Indianapolis Center
10:15PM 40.6058 -82.3356 28° Northeast 183 211 7,100  Level Indianapolis Center
10:16PM 40.6522 -82.3017 29° Northeast 187 215 7,100  Level Indianapolis Center
10:17PM 40.6986 -82.2678 29° Northeast 188 216 7,100  Level Indianapolis Center
10:18PM 40.7458 -82.2356 27° Northeast 190 219 7,100  Level Indianapolis Center
10:19PM 40.7931 -82.2022 28° Northeast 189 217 7,100  Level Indianapolis Center
10:20PM 40.8314 -82.1775 26° Northeast 186 214 7,100  Level Cleveland Center
10:20PM 40.8525 -82.1589 34° Northeast 185 213 7,100  Level Cleveland Center
10:22PM 40.9408 -82.1003 27° Northeast 184 212 7,100  Level Cleveland Center
10:23PM 40.9872 -82.0658 29° Northeast 188 216 7,100  Level Cleveland Center
10:25PM 41.0369 -82.0305 28° Northeast  Level FlightAware Approximate
10:25PM 41.0736 -82.0044 28° Northeast 186 214 7,100  Level Cleveland Center
10:26PM 41.1133 -81.9750 29° Northeast 186 214 7,100  Level Cleveland Center
10:27PM 41.1597 -81.9400 30° Northeast 185 213 7,100 -60 Level Cleveland Center
10:28PM 41.2064 -81.8831 43° Northeast 177 204 7,000 -480 Descending Cleveland Center
10:29PM 41.2464 -81.8286 46° Northeast 198 228 6,100 -960 Descending Cleveland Center
10:30PM 41.2825 -81.7878 40° Northeast 208 239 5,200 -1,020 Descending Cleveland Center
10:31PM 41.3286 -81.7389 39° Northeast 201 231 4,200 -780 Descending Cleveland Center
10:32PM 41.3689 -81.6953 39° Northeast 198 228 3,700 -540 Descending Cleveland Center
10:33PM 41.4131 -81.6519 36° Northeast 186 214 3,200 -540 Descending Cleveland Center
10:35PM 41.4680 -81.6685 27° Northeast  Level Estimated
10:35PM 41.5114 -81.5981 27° Northeast 197 227 2,100  Level Cleveland Center
10:36PM 41.5569 -81.6347 329° Northwest 196 226 1,800 -300 Descending Cleveland Center
10:37PM 41.5503 -81.6958 262° West 156 180 1,600 -420 Descending Cleveland Center
10:39PM 41.5125 -81.7117 197° South 115 132 1,000 -540 Descending Cleveland Center